createdAt,value
2022-12-11T00:37:49.927Z,16.60
2022-12-11T00:38:53.599Z,16.50
2022-12-11T00:39:55.915Z,16.60
2022-12-11T00:40:59.730Z,16.50
2022-12-11T00:42:02.164Z,16.50
2022-12-11T00:43:04.688Z,16.50
2022-12-11T00:44:07.007Z,16.50
2022-12-11T00:45:10.220Z,16.50
2022-12-11T00:46:13.233Z,16.50
2022-12-11T00:47:15.555Z,16.50
2022-12-11T00:48:17.860Z,16.60
2022-12-11T00:49:20.098Z,16.50
2022-12-11T00:50:23.083Z,16.50
2022-12-11T00:51:25.972Z,16.50
2022-12-11T00:52:28.298Z,16.50
2022-12-11T00:53:30.783Z,16.50
2022-12-11T00:54:34.163Z,16.50
2022-12-11T00:55:38.523Z,16.50
2022-12-11T00:56:41.016Z,16.60
2022-12-11T00:57:43.341Z,16.50
2022-12-11T00:58:47.173Z,16.50
2022-12-11T00:59:49.676Z,16.50
2022-12-11T01:00:53.058Z,16.50
2022-12-11T01:01:55.457Z,16.50
2022-12-11T01:02:57.821Z,16.60
2022-12-11T01:04:00.205Z,16.50
2022-12-11T01:05:02.628Z,16.50
2022-12-11T01:06:06.624Z,16.50
2022-12-11T01:07:08.987Z,16.60
2022-12-11T01:08:11.299Z,16.60
2022-12-11T01:09:32.410Z,16.60
2022-12-11T01:10:34.986Z,16.60
2022-12-11T01:11:38.102Z,16.60
2022-12-11T01:12:40.541Z,16.70
2022-12-11T01:13:43.645Z,16.70
2022-12-11T01:14:46.077Z,16.70
2022-12-11T01:15:48.328Z,16.70
2022-12-11T01:16:50.772Z,16.70
2022-12-11T01:17:54.160Z,16.70
2022-12-11T01:18:57.569Z,16.70
2022-12-11T01:19:59.952Z,16.70
2022-12-11T01:21:14.969Z,16.70
2022-12-11T01:22:17.225Z,16.70
2022-12-11T01:23:19.544Z,16.70
2022-12-11T01:24:22.029Z,16.70
2022-12-11T01:25:24.957Z,16.70
2022-12-11T01:26:27.366Z,16.70
2022-12-11T01:27:29.698Z,16.70
2022-12-11T01:28:31.989Z,16.70
2022-12-11T01:29:34.312Z,16.70
2022-12-11T01:30:37.425Z,16.70
2022-12-11T01:31:39.743Z,16.60
2022-12-11T01:32:41.971Z,16.70
2022-12-11T01:33:44.356Z,16.60
2022-12-11T01:34:46.617Z,16.60
2022-12-11T01:35:48.955Z,16.60
2022-12-11T01:36:52.447Z,16.60
2022-12-11T01:37:55.040Z,16.60
2022-12-11T01:38:57.370Z,16.60
2022-12-11T01:40:01.048Z,16.60
2022-12-11T01:41:03.665Z,16.60
2022-12-11T01:42:10.292Z,16.60
2022-12-11T01:43:12.579Z,16.50
2022-12-11T01:44:14.810Z,16.50
2022-12-11T01:45:27.860Z,16.60
2022-12-11T01:46:31.752Z,16.60
2022-12-11T01:47:34.138Z,16.60
2022-12-11T01:48:41.969Z,16.60
2022-12-11T01:49:44.557Z,16.60
2022-12-11T01:50:51.399Z,16.60
2022-12-11T01:51:58.835Z,16.60
2022-12-11T01:53:02.427Z,16.60
2022-12-11T01:54:11.335Z,16.60
2022-12-11T01:55:14.559Z,16.60
2022-12-11T01:56:17.618Z,16.60
2022-12-11T01:57:20.093Z,16.60
2022-12-11T01:58:26.864Z,16.60
2022-12-11T01:59:34.104Z,16.60
2022-12-11T02:00:36.480Z,16.60
2022-12-11T02:01:50.984Z,16.60
2022-12-11T02:02:53.363Z,16.50
2022-12-11T02:03:56.953Z,16.50
2022-12-11T02:05:01.519Z,16.60
2022-12-11T02:06:04.019Z,16.60
2022-12-11T02:07:06.433Z,16.50
2022-12-11T02:08:09.546Z,16.60
2022-12-11T02:09:17.180Z,16.50
2022-12-11T02:10:19.782Z,16.50
2022-12-11T02:11:28.477Z,16.60
2022-12-11T02:13:01.565Z,16.50
2022-12-11T02:14:33.561Z,16.50
2022-12-11T02:15:37.849Z,16.50
2022-12-11T02:16:45.825Z,16.50
2022-12-11T02:18:25.682Z,16.50
2022-12-11T02:19:44.284Z,16.50
2022-12-11T02:20:55.046Z,16.50
2022-12-11T02:22:03.228Z,16.50
2022-12-11T02:23:20.343Z,16.50
2022-12-11T02:24:32.964Z,16.50
2022-12-11T02:26:12.094Z,16.50
2022-12-11T02:27:28.680Z,16.40
2022-12-11T02:28:47.298Z,16.40
2022-12-11T02:30:04.388Z,16.40
2022-12-11T02:31:21.368Z,16.50
2022-12-11T02:32:42.933Z,16.40
2022-12-11T02:33:58.206Z,16.40
2022-12-11T02:35:19.653Z,16.40
2022-12-11T02:36:25.354Z,16.30
2022-12-11T02:37:31.095Z,16.30
2022-12-11T02:38:39.477Z,16.40
2022-12-11T02:39:44.512Z,16.40
2022-12-11T02:40:49.944Z,16.40
2022-12-11T02:41:52.648Z,16.40
2022-12-11T02:42:57.959Z,16.40
2022-12-11T02:44:02.649Z,16.40
2022-12-11T02:45:08.025Z,16.40
2022-12-11T02:46:12.239Z,16.40
2022-12-11T02:47:17.513Z,16.40
2022-12-11T02:48:22.816Z,16.40
2022-12-11T02:49:27.482Z,16.40
2022-12-11T02:50:30.544Z,16.40
2022-12-11T02:51:38.801Z,16.40
2022-12-11T02:52:42.869Z,16.40
2022-12-11T02:53:46.652Z,16.40
2022-12-11T02:54:52.547Z,16.40
2022-12-11T02:56:04.057Z,16.30
2022-12-11T02:57:08.599Z,16.30
2022-12-11T02:58:21.881Z,16.40
2022-12-11T02:59:29.029Z,16.40
2022-12-11T03:00:31.960Z,16.40
2022-12-11T03:01:34.436Z,16.30
2022-12-11T03:02:38.818Z,16.40
2022-12-11T03:03:41.493Z,16.30
2022-12-11T03:04:44.997Z,16.30
2022-12-11T03:05:47.824Z,16.30
2022-12-11T03:06:54.173Z,16.30
2022-12-11T03:07:56.747Z,16.30
2022-12-11T03:08:59.332Z,16.30
2022-12-11T03:10:01.806Z,16.30
2022-12-11T03:11:04.340Z,16.30
2022-12-11T03:12:09.751Z,16.30
2022-12-11T03:13:16.162Z,16.30
2022-12-11T03:14:18.821Z,16.30
2022-12-11T03:15:30.132Z,16.30
2022-12-11T03:16:37.127Z,16.30
2022-12-11T03:18:09.673Z,16.40
2022-12-11T03:19:19.681Z,16.30
2022-12-11T03:20:39.421Z,16.30
2022-12-11T03:21:56.835Z,16.30
2022-12-11T03:23:18.700Z,16.30
2022-12-11T03:24:21.195Z,16.30
2022-12-11T03:25:29.899Z,16.30
2022-12-11T03:26:39.243Z,16.30
2022-12-11T03:27:58.238Z,16.30
2022-12-11T03:29:05.082Z,16.30
2022-12-11T03:30:12.691Z,16.30
2022-12-11T03:31:27.744Z,16.30
2022-12-11T03:32:44.705Z,16.20
2022-12-11T03:33:49.827Z,16.20
2022-12-11T03:35:00.981Z,16.30
2022-12-11T03:36:13.682Z,16.30
2022-12-11T03:37:17.792Z,16.30
2022-12-11T03:38:33.319Z,16.30
2022-12-11T03:39:43.322Z,16.30
2022-12-11T03:40:48.782Z,16.30
2022-12-11T03:41:53.355Z,16.20
2022-12-11T03:42:57.623Z,16.20
2022-12-11T03:44:00.830Z,16.20
2022-12-11T03:45:06.400Z,16.20
2022-12-11T03:46:10.363Z,16.20
2022-12-11T03:47:18.207Z,16.20
2022-12-11T03:48:23.182Z,16.20
2022-12-11T03:49:29.863Z,16.20
2022-12-11T03:50:34.663Z,16.20
2022-12-11T03:51:37.988Z,16.20
2022-12-11T03:52:45.952Z,16.20
2022-12-11T03:53:48.886Z,16.20
2022-12-11T03:54:52.583Z,16.20
2022-12-11T03:55:58.232Z,16.20
2022-12-11T03:57:04.022Z,16.20
2022-12-11T03:58:06.689Z,16.20
2022-12-11T03:59:09.497Z,16.20
2022-12-11T04:00:16.039Z,16.20
2022-12-11T04:01:18.528Z,16.20
2022-12-11T04:02:21.030Z,16.20
2022-12-11T04:03:24.264Z,16.10
2022-12-11T04:04:27.241Z,16.20
2022-12-11T04:05:29.626Z,16.10
2022-12-11T04:06:32.185Z,16.20
2022-12-11T04:07:34.801Z,16.20
2022-12-11T04:08:37.187Z,16.20
2022-12-11T04:09:40.744Z,16.20
2022-12-11T04:10:44.059Z,16.10
2022-12-11T04:11:46.542Z,16.10
2022-12-11T04:20:20.797Z,16.20
2022-12-11T04:21:41.908Z,16.10
2022-12-11T04:23:03.222Z,16.10
2022-12-11T04:24:16.085Z,16.00
2022-12-11T04:25:19.687Z,16.00
2022-12-11T04:26:22.462Z,16.00
2022-12-11T04:27:44.255Z,16.00
2022-12-11T04:28:47.418Z,16.00
2022-12-11T04:29:49.759Z,16.00
2022-12-11T04:30:52.360Z,15.90
2022-12-11T04:31:55.724Z,15.90
2022-12-11T04:32:58.444Z,15.90
2022-12-11T04:34:01.083Z,15.90
2022-12-11T05:34:10.961Z,17.10
2022-12-11T05:35:13.449Z,17.50
2022-12-11T05:36:23.415Z,17.60
2022-12-11T05:37:25.752Z,17.30
2022-12-11T05:38:28.156Z,17.40
2022-12-11T05:39:30.480Z,17.40
2022-12-11T05:41:08.926Z,17.50
2022-12-11T05:42:11.237Z,17.60
2022-12-11T05:43:13.528Z,17.70
2022-12-11T05:44:16.000Z,17.90
2022-12-11T05:45:18.928Z,17.90
2022-12-11T05:46:29.668Z,18.10
2022-12-11T05:47:32.021Z,18.20
2022-12-11T05:48:34.887Z,18.30
2022-12-11T05:49:37.294Z,18.40
2022-12-11T05:50:39.581Z,18.40
2022-12-11T05:51:43.778Z,18.40
2022-12-11T05:52:46.002Z,18.50
2022-12-11T05:53:49.892Z,18.60
2022-12-11T05:54:52.140Z,18.70
2022-12-11T05:55:54.543Z,18.70
2022-12-11T05:56:56.763Z,18.80
2022-12-11T05:57:59.256Z,18.80
2022-12-11T05:59:03.109Z,18.90
2022-12-11T06:00:06.192Z,18.90
2022-12-11T06:01:11.012Z,19.00
2022-12-11T06:02:13.318Z,19.00
2022-12-11T06:03:15.770Z,18.90
2022-12-11T06:04:18.003Z,18.70
2022-12-11T06:05:20.285Z,18.70
2022-12-11T06:06:23.914Z,18.60
2022-12-11T06:07:26.183Z,18.60
2022-12-11T06:08:28.870Z,18.70
2022-12-11T06:09:31.134Z,18.80
2022-12-11T06:10:33.752Z,18.90
2022-12-11T06:11:36.252Z,18.90
2022-12-11T06:12:38.524Z,19.00
2022-12-11T06:13:40.819Z,19.10
2022-12-11T06:14:43.146Z,19.10
2022-12-11T06:15:45.428Z,19.20
2022-12-11T06:16:47.750Z,19.20
2022-12-11T06:17:50.067Z,19.20
2022-12-11T06:18:55.827Z,19.20
2022-12-11T06:20:00.468Z,19.30
2022-12-11T06:21:02.814Z,19.30
2022-12-11T06:22:05.348Z,19.30
2022-12-11T06:23:07.641Z,19.30
2022-12-11T06:24:11.036Z,19.40
2022-12-11T06:25:13.938Z,19.40
2022-12-11T06:26:17.332Z,19.40
2022-12-11T06:27:19.709Z,19.40
2022-12-11T06:28:22.007Z,19.50
2022-12-11T06:29:24.222Z,19.50
2022-12-11T06:30:38.947Z,19.50
2022-12-11T06:31:42.814Z,19.60
2022-12-11T06:32:45.209Z,19.60
2022-12-11T06:33:48.134Z,19.70
2022-12-11T06:34:50.533Z,19.70
2022-12-11T06:35:52.892Z,19.70
2022-12-11T06:36:55.204Z,19.70
2022-12-11T06:37:57.837Z,19.70
2022-12-11T06:39:00.150Z,19.70
2022-12-11T06:40:03.756Z,19.70
2022-12-11T06:41:07.638Z,19.80
2022-12-11T06:42:09.940Z,19.80
2022-12-11T06:43:12.300Z,19.80
2022-12-11T06:44:14.562Z,19.80
2022-12-11T06:45:16.918Z,19.80
2022-12-11T06:46:20.633Z,19.80
2022-12-11T06:47:23.241Z,19.80
2022-12-11T06:48:25.908Z,19.80
2022-12-11T06:49:28.307Z,19.80
2022-12-11T06:50:30.605Z,19.80
2022-12-11T06:51:32.929Z,19.80
2022-12-11T06:52:35.423Z,19.90
2022-12-11T06:53:38.066Z,19.80
2022-12-11T06:54:40.285Z,19.90
2022-12-11T06:55:42.645Z,19.90
2022-12-11T06:56:44.959Z,19.90
2022-12-11T06:57:47.283Z,19.90
2022-12-11T06:58:49.799Z,19.90
2022-12-11T06:59:52.084Z,19.90
2022-12-11T07:00:54.465Z,19.90
2022-12-11T07:01:56.869Z,19.90
2022-12-11T07:02:59.201Z,19.90
2022-12-11T07:04:01.711Z,19.90
2022-12-11T07:05:04.517Z,19.70
2022-12-11T07:06:07.138Z,19.60
2022-12-11T07:07:10.046Z,19.40
2022-12-11T07:08:12.313Z,19.30
2022-12-11T07:09:14.591Z,19.40
2022-12-11T07:10:16.916Z,19.50
2022-12-11T07:11:20.721Z,19.50
2022-12-11T07:12:22.993Z,19.60
2022-12-11T07:13:25.295Z,19.70
2022-12-11T07:14:27.586Z,19.70
2022-12-11T07:15:29.903Z,19.70
2022-12-11T07:16:32.213Z,19.80
2022-12-11T07:17:34.533Z,19.80
2022-12-11T07:18:38.483Z,19.80
2022-12-11T07:19:40.949Z,19.90
2022-12-11T07:20:43.184Z,19.90
2022-12-11T07:21:45.462Z,19.90
2022-12-11T07:22:47.899Z,19.90
2022-12-11T07:23:50.382Z,19.90
2022-12-11T07:24:52.600Z,19.90
2022-12-11T07:25:55.664Z,20.00
2022-12-11T07:26:58.025Z,20.00
2022-12-11T07:28:00.310Z,20.00
2022-12-11T07:29:02.983Z,20.00
2022-12-11T07:30:05.770Z,20.00
2022-12-11T07:31:10.215Z,20.00
2022-12-11T07:32:12.741Z,20.00
2022-12-11T07:33:15.742Z,20.00
2022-12-11T07:34:18.253Z,20.00
2022-12-11T07:35:20.585Z,19.90
2022-12-11T07:36:23.802Z,19.60
2022-12-11T07:37:26.092Z,19.60
2022-12-11T07:38:28.456Z,19.70
2022-12-11T07:39:30.797Z,19.70
2022-12-11T07:40:33.762Z,19.80
2022-12-11T07:41:36.093Z,19.80
2022-12-11T07:42:44.440Z,19.90
2022-12-11T07:43:48.716Z,19.90
2022-12-11T07:44:51.074Z,19.90
2022-12-11T07:45:53.513Z,19.90
2022-12-11T07:46:56.147Z,19.90
2022-12-11T07:51:28.835Z,19.90
2022-12-11T07:52:33.806Z,20.00
2022-12-11T07:53:36.170Z,20.00
2022-12-11T07:54:38.489Z,20.00
2022-12-11T07:55:40.845Z,19.70
2022-12-11T07:56:45.714Z,19.30
2022-12-11T07:57:50.883Z,19.20
2022-12-11T07:58:53.686Z,19.00
2022-12-11T07:59:55.954Z,18.90
2022-12-11T08:00:58.340Z,18.70
2022-12-11T08:02:00.723Z,18.60
2022-12-11T08:03:03.354Z,18.70
2022-12-11T08:04:11.179Z,18.90
2022-12-11T08:05:13.812Z,19.00
2022-12-11T08:06:17.352Z,19.20
2022-12-11T08:07:19.607Z,19.30
2022-12-11T08:08:21.983Z,19.40
2022-12-11T08:09:24.316Z,19.50
2022-12-11T08:10:26.636Z,19.50
2022-12-11T08:11:29.766Z,19.60
2022-12-11T08:12:32.058Z,19.70
2022-12-11T08:13:35.050Z,19.70
2022-12-11T08:14:37.428Z,19.70
2022-12-11T08:15:39.730Z,19.80
2022-12-11T08:16:43.980Z,19.80
2022-12-11T08:17:46.390Z,19.80
2022-12-11T08:18:49.094Z,19.90
2022-12-11T08:19:51.368Z,19.90
2022-12-11T08:20:53.635Z,19.90
2022-12-11T08:21:55.972Z,19.90
2022-12-11T08:22:59.319Z,19.90
2022-12-11T08:24:01.951Z,20.00
2022-12-11T08:25:04.569Z,20.00
2022-12-11T08:26:15.208Z,20.00
2022-12-11T08:27:17.484Z,20.00
2022-12-11T08:28:19.780Z,20.00
2022-12-11T08:29:22.975Z,20.00
2022-12-11T08:30:25.391Z,20.00
2022-12-11T08:31:27.762Z,20.00
2022-12-11T08:32:31.779Z,20.00
2022-12-11T08:33:35.307Z,20.10
2022-12-11T08:34:37.747Z,19.90
2022-12-11T08:35:41.276Z,19.80
2022-12-11T08:36:44.224Z,19.70
2022-12-11T08:37:46.556Z,19.60
2022-12-11T08:38:49.784Z,19.50
2022-12-11T08:39:52.252Z,19.40
2022-12-11T08:40:54.516Z,19.40
2022-12-11T08:41:57.271Z,19.30
2022-12-11T08:42:59.579Z,19.40
2022-12-11T08:44:02.053Z,19.50
2022-12-11T08:45:05.047Z,19.60
2022-12-11T08:46:07.934Z,19.70
2022-12-11T08:47:10.900Z,19.80
2022-12-11T08:48:13.235Z,19.90
2022-12-11T08:49:15.603Z,19.90
2022-12-11T08:50:17.960Z,19.90
2022-12-11T08:51:23.111Z,20.00
2022-12-11T08:52:25.465Z,20.00
2022-12-11T08:53:29.836Z,20.00
2022-12-11T08:54:32.595Z,20.10
2022-12-11T08:55:35.191Z,20.10
2022-12-11T08:56:37.512Z,20.10
2022-12-11T08:57:40.875Z,20.10
2022-12-11T08:58:44.243Z,20.20
2022-12-11T08:59:46.519Z,20.20
2022-12-11T09:00:48.758Z,20.20
2022-12-11T09:01:51.600Z,20.20
2022-12-11T09:02:54.063Z,20.20
2022-12-11T09:03:57.105Z,20.20
2022-12-11T09:04:59.456Z,20.20
2022-12-11T09:06:05.524Z,20.20
2022-12-11T09:07:07.836Z,20.20
2022-12-11T09:08:10.127Z,20.20
2022-12-11T09:09:12.743Z,20.20
2022-12-11T09:10:15.179Z,20.20
2022-12-11T09:11:23.550Z,20.30
2022-12-11T09:12:27.390Z,20.30
2022-12-11T09:13:29.692Z,20.30
2022-12-11T09:14:32.012Z,20.30
2022-12-11T09:15:34.691Z,20.30
2022-12-11T09:16:40.282Z,20.30
2022-12-11T09:17:42.756Z,20.30
2022-12-11T09:18:47.371Z,20.30
2022-12-11T09:19:49.690Z,20.40
2022-12-11T09:21:03.668Z,20.40
2022-12-11T09:22:05.924Z,20.30
2022-12-11T09:23:08.386Z,20.20
2022-12-11T09:24:12.554Z,20.00
2022-12-11T09:25:15.024Z,19.90
2022-12-11T09:26:18.792Z,19.70
2022-12-11T09:27:21.399Z,19.80
2022-12-11T09:28:24.489Z,19.90
2022-12-11T09:29:27.412Z,19.90
2022-12-11T09:30:29.839Z,20.00
2022-12-11T09:31:35.416Z,20.10
2022-12-11T09:32:37.808Z,20.10
2022-12-11T09:33:40.111Z,20.20
2022-12-11T09:34:42.497Z,20.20
2022-12-11T09:35:45.247Z,20.20
2022-12-11T09:36:47.671Z,20.30
2022-12-11T09:37:50.209Z,20.30
2022-12-11T09:38:52.704Z,20.30
2022-12-11T09:39:55.023Z,20.30
2022-12-11T09:40:58.252Z,20.30
2022-12-11T09:42:05.193Z,20.30
2022-12-11T09:43:15.205Z,20.40
2022-12-11T09:44:39.735Z,20.40
2022-12-11T09:45:42.063Z,20.40
2022-12-11T09:46:46.536Z,20.40
2022-12-11T09:47:54.260Z,20.40
2022-12-11T09:48:56.989Z,20.40
2022-12-11T09:50:04.430Z,20.40
2022-12-11T09:51:36.624Z,20.40
2022-12-11T09:52:44.655Z,20.40
2022-12-11T09:53:47.111Z,20.40
2022-12-11T09:55:00.864Z,20.40
2022-12-11T09:56:27.725Z,20.40
2022-12-11T09:57:38.270Z,20.30
2022-12-11T09:59:13.135Z,20.20
2022-12-11T10:00:30.459Z,20.10
2022-12-11T10:01:43.852Z,20.10
2022-12-11T10:03:11.162Z,20.10
2022-12-11T10:04:38.525Z,20.20
2022-12-11T10:06:04.033Z,20.30
2022-12-11T10:07:32.177Z,20.30
2022-12-11T10:08:42.103Z,20.30
2022-12-11T10:10:00.693Z,20.30
2022-12-11T10:11:20.471Z,20.40
2022-12-11T10:12:54.268Z,20.40
2022-12-11T10:14:26.935Z,20.50
2022-12-11T10:15:49.506Z,20.50
2022-12-11T10:17:02.547Z,20.50
2022-12-11T10:18:09.778Z,20.60
2022-12-11T10:19:22.736Z,20.50
2022-12-11T10:20:33.486Z,20.60
2022-12-11T10:21:41.404Z,20.60
2022-12-11T10:22:44.873Z,20.60
2022-12-11T10:23:56.312Z,20.60
2022-12-11T10:25:11.201Z,20.60
2022-12-11T10:26:22.480Z,20.60
2022-12-11T10:27:31.333Z,20.70
2022-12-11T10:28:35.048Z,20.70
2022-12-11T10:29:37.344Z,20.70
2022-12-11T10:30:46.351Z,20.60
2022-12-11T10:31:58.689Z,20.60
2022-12-11T10:33:07.261Z,20.70
2022-12-11T10:34:24.353Z,20.60
2022-12-11T10:35:36.996Z,20.70
2022-12-11T10:36:42.068Z,20.70
2022-12-11T10:37:44.348Z,20.60
2022-12-11T10:38:47.580Z,20.60
2022-12-11T10:39:50.012Z,20.60
2022-12-11T10:40:56.943Z,20.60
2022-12-11T10:41:59.242Z,20.60
2022-12-11T10:43:01.589Z,20.60
2022-12-11T10:44:19.055Z,20.60
2022-12-11T10:45:21.403Z,20.60
2022-12-11T10:46:29.116Z,20.60
2022-12-11T10:47:33.974Z,20.70
2022-12-11T10:48:46.177Z,20.60
2022-12-11T10:49:58.323Z,20.70
2022-12-11T10:51:04.377Z,20.60
2022-12-11T10:52:26.797Z,20.60
2022-12-11T10:53:30.311Z,20.70
2022-12-11T10:54:48.910Z,20.70
2022-12-11T10:55:51.512Z,20.70
2022-12-11T10:56:54.284Z,20.70
2022-12-11T10:58:03.223Z,19.80
2022-12-11T10:59:05.550Z,18.70
2022-12-11T11:00:26.313Z,18.00
2022-12-11T11:01:31.379Z,17.50
2022-12-11T11:02:38.876Z,17.50
2022-12-11T11:04:04.729Z,18.10
2022-12-11T11:05:16.007Z,18.50
2022-12-11T11:06:19.494Z,18.80
2022-12-11T11:07:24.743Z,19.00
2022-12-11T11:08:27.826Z,19.20
2022-12-11T11:09:36.547Z,19.40
2022-12-11T11:10:49.481Z,19.50
2022-12-11T11:11:51.793Z,19.60
2022-12-11T11:13:01.948Z,19.70
2022-12-11T11:14:24.469Z,19.80
2022-12-11T11:15:29.476Z,19.90
2022-12-11T11:16:32.216Z,19.90
2022-12-11T11:17:52.945Z,20.00
2022-12-11T11:18:58.100Z,20.10
2022-12-11T11:20:11.875Z,20.10
2022-12-11T11:21:19.739Z,20.10
2022-12-11T11:22:22.217Z,20.20
2022-12-11T11:23:26.063Z,20.20
2022-12-11T11:24:31.550Z,20.20
2022-12-11T11:25:33.948Z,20.20
2022-12-11T11:27:04.785Z,20.30
2022-12-11T11:28:04.647Z,20.30
2022-12-11T11:29:16.842Z,20.30
2022-12-11T11:30:28.335Z,20.40
2022-12-11T11:31:33.965Z,20.40
2022-12-11T11:32:41.174Z,20.40
2022-12-11T11:34:08.322Z,20.40
2022-12-11T11:35:11.682Z,20.40
2022-12-11T11:36:25.736Z,20.40
2022-12-11T11:37:32.876Z,20.50
2022-12-11T11:38:44.625Z,20.50
2022-12-11T11:39:48.015Z,20.50
2022-12-11T11:41:11.550Z,20.40
2022-12-11T11:42:29.850Z,20.10
2022-12-11T11:43:44.519Z,19.90
2022-12-11T11:45:05.460Z,19.70
2022-12-11T11:46:43.449Z,19.40
2022-12-11T11:48:00.429Z,19.60
2022-12-11T11:49:29.604Z,19.80
2022-12-11T11:50:36.185Z,19.90
2022-12-11T11:52:01.577Z,20.00
2022-12-11T11:53:14.476Z,20.00
2022-12-11T11:54:33.317Z,20.10
2022-12-11T11:55:45.360Z,20.10
2022-12-11T11:56:51.541Z,20.20
2022-12-11T11:58:02.756Z,20.20
2022-12-11T11:59:20.147Z,20.30
2022-12-11T12:00:33.573Z,20.40
2022-12-11T12:01:36.515Z,20.40
2022-12-11T12:02:40.757Z,20.40
2022-12-11T12:03:43.954Z,20.40
2022-12-11T12:04:47.627Z,20.40
2022-12-11T12:06:10.936Z,20.40
2022-12-11T12:07:29.422Z,20.40
2022-12-11T12:09:12.989Z,20.50
2022-12-11T12:10:18.692Z,20.30
2022-12-11T12:11:39.062Z,20.10
2022-12-11T12:12:47.208Z,19.90
2022-12-11T12:14:50.740Z,19.80
2022-12-11T12:15:52.427Z,19.90
2022-12-11T12:16:54.813Z,20.00
2022-12-11T12:18:17.443Z,20.10
2022-12-11T12:19:25.705Z,20.10
2022-12-11T12:20:33.687Z,20.20
2022-12-11T12:21:38.912Z,20.20
2022-12-11T12:22:52.560Z,20.20
2022-12-11T12:24:25.798Z,20.30
2022-12-11T12:25:41.031Z,20.30
2022-12-11T12:26:55.792Z,20.30
2022-12-11T12:28:29.368Z,20.30
2022-12-11T12:29:46.724Z,20.30
2022-12-11T12:31:29.501Z,20.30
2022-12-11T12:33:08.767Z,20.30
2022-12-11T12:34:25.595Z,20.40
2022-12-11T12:35:44.526Z,20.40
2022-12-11T12:36:54.280Z,20.40
2022-12-11T12:38:14.979Z,20.40
2022-12-11T12:39:41.757Z,20.40
2022-12-11T12:41:01.948Z,20.40
2022-12-11T12:42:11.698Z,20.40
2022-12-11T12:43:32.359Z,20.40
2022-12-11T12:44:49.905Z,20.40
2022-12-11T12:46:13.093Z,20.40
2022-12-11T12:47:18.653Z,20.40
2022-12-11T12:48:24.268Z,20.40
2022-12-11T12:49:37.444Z,20.40
2022-12-11T12:50:46.369Z,20.40
2022-12-11T12:51:51.053Z,20.50
2022-12-11T12:52:55.375Z,20.40
2022-12-11T12:54:01.463Z,20.40
2022-12-11T12:55:18.080Z,20.40
2022-12-11T12:56:22.056Z,20.40
2022-12-11T12:57:24.570Z,20.40
2022-12-11T12:58:43.142Z,20.50
2022-12-11T12:59:54.428Z,20.40
2022-12-11T13:01:25.592Z,20.50
2022-12-11T13:02:29.280Z,20.50
2022-12-11T13:03:35.549Z,20.50
2022-12-11T13:04:58.490Z,20.50
2022-12-11T13:06:08.125Z,20.50
2022-12-11T13:07:18.910Z,20.50
2022-12-11T13:08:30.987Z,20.50
2022-12-11T13:09:33.285Z,20.50
2022-12-11T13:10:38.618Z,20.50
2022-12-11T13:11:41.077Z,20.50
2022-12-11T13:12:45.745Z,20.50
2022-12-11T13:14:02.024Z,20.50
2022-12-11T13:15:04.498Z,20.20
2022-12-11T13:16:27.728Z,18.80
2022-12-11T13:17:38.914Z,16.60
2022-12-11T13:18:43.451Z,15.00
2022-12-11T13:19:45.862Z,14.20
2022-12-11T13:20:51.588Z,13.80
2022-12-11T13:22:12.480Z,12.90
2022-12-11T13:23:27.255Z,12.50
2022-12-11T13:24:34.716Z,12.20
2022-12-11T13:25:55.544Z,11.50
2022-12-11T13:27:22.172Z,11.10
2022-12-11T13:28:33.179Z,11.20
2022-12-11T13:29:41.273Z,11.00
2022-12-11T13:30:43.669Z,10.80
2022-12-11T13:32:01.750Z,10.80
2022-12-11T13:33:15.994Z,10.60
2022-12-11T13:34:22.987Z,10.30
2022-12-11T13:35:25.401Z,10.10
2022-12-11T13:36:32.540Z,9.80
2022-12-11T13:37:43.516Z,9.70
2022-12-11T13:39:27.428Z,9.90
2022-12-11T13:40:37.925Z,10.00
2022-12-11T13:41:40.489Z,9.80
2022-12-11T13:42:48.327Z,9.70
2022-12-11T13:43:52.168Z,9.80
2022-12-11T13:44:54.536Z,9.30
2022-12-11T13:46:02.708Z,9.20
2022-12-11T13:47:10.983Z,9.40
2022-12-11T13:48:21.084Z,9.50
2022-12-11T13:49:27.732Z,9.60
2022-12-11T13:50:35.044Z,9.70
2022-12-11T13:51:37.953Z,9.80
2022-12-11T13:52:40.352Z,10.60
2022-12-11T13:53:42.809Z,11.40
2022-12-11T13:54:51.264Z,12.10
2022-12-11T13:56:02.526Z,12.60
2022-12-11T13:57:17.913Z,13.20
2022-12-11T13:58:22.076Z,13.80
2022-12-11T13:59:30.001Z,14.20
2022-12-11T14:00:32.998Z,14.60
2022-12-11T14:01:35.745Z,14.90
2022-12-11T14:02:42.541Z,15.20
2022-12-11T14:04:08.879Z,15.50
2022-12-11T14:05:13.496Z,15.80
2022-12-11T14:06:18.924Z,16.10
2022-12-11T14:07:29.769Z,16.40
2022-12-11T14:08:35.844Z,16.60
2022-12-11T14:09:43.530Z,16.70
2022-12-11T14:10:53.215Z,16.90
2022-12-11T14:11:57.320Z,17.10
2022-12-11T14:13:01.807Z,17.30
2022-12-11T14:14:08.388Z,17.40
2022-12-11T14:15:15.507Z,17.50
2022-12-11T14:16:25.128Z,17.50
2022-12-11T14:17:31.285Z,17.60
2022-12-11T14:18:36.098Z,17.80
2022-12-11T14:19:39.300Z,17.90
2022-12-11T14:20:42.248Z,18.00
2022-12-11T14:21:59.685Z,18.10
2022-12-11T14:23:09.484Z,18.30
2022-12-11T14:24:14.111Z,18.30
2022-12-11T14:25:27.416Z,18.40
2022-12-11T14:26:37.836Z,18.50
2022-12-11T14:27:48.881Z,18.60
2022-12-11T14:28:52.180Z,18.60
2022-12-11T14:29:55.315Z,18.70
2022-12-11T14:31:00.874Z,18.70
2022-12-11T14:32:06.508Z,18.80
2022-12-11T14:33:11.114Z,18.90
2022-12-11T14:34:23.898Z,18.90
2022-12-11T14:35:38.859Z,18.90
2022-12-11T14:36:42.587Z,19.00
2022-12-11T14:37:45.177Z,19.00
2022-12-11T14:39:02.556Z,19.10
2022-12-11T14:40:10.004Z,19.10
2022-12-11T14:41:36.504Z,19.10
2022-12-11T14:42:43.870Z,19.20
2022-12-11T14:43:51.319Z,19.20
2022-12-11T14:44:58.092Z,19.30
2022-12-11T14:46:10.961Z,19.30
2022-12-11T14:47:20.167Z,19.30
2022-12-11T14:48:28.143Z,19.30
2022-12-11T14:50:12.488Z,19.40
2022-12-11T14:51:17.947Z,19.40
2022-12-11T14:52:42.248Z,19.40
2022-12-11T14:53:48.692Z,19.50
2022-12-11T14:55:01.272Z,19.50
2022-12-11T14:56:07.597Z,19.50
2022-12-11T14:57:20.031Z,19.50
2022-12-11T14:58:26.464Z,19.50
2022-12-11T14:59:32.156Z,19.50
2022-12-11T15:00:36.971Z,19.60
2022-12-11T15:01:39.514Z,19.60
2022-12-11T15:02:42.087Z,19.60
2022-12-11T15:03:45.028Z,19.60
2022-12-11T15:05:18.269Z,19.60
2022-12-11T15:06:33.169Z,19.60
2022-12-11T15:07:36.495Z,19.70
2022-12-11T15:08:39.053Z,19.70
2022-12-11T15:09:42.436Z,19.00
2022-12-11T15:11:07.652Z,19.00
2022-12-11T15:12:15.872Z,19.10
2022-12-11T15:13:23.631Z,19.10
2022-12-11T15:14:27.212Z,19.20
2022-12-11T15:15:36.337Z,19.20
2022-12-11T15:16:41.507Z,19.30
2022-12-11T15:17:48.350Z,19.30
2022-12-11T15:18:55.250Z,19.40
2022-12-11T15:20:06.293Z,19.50
2022-12-11T15:21:12.074Z,19.50
2022-12-11T15:22:17.303Z,19.50
2022-12-11T15:23:19.840Z,19.60
2022-12-11T15:24:30.451Z,19.60
2022-12-11T15:25:32.809Z,19.60
2022-12-11T15:26:39.945Z,19.70
2022-12-11T15:27:42.243Z,19.70
2022-12-11T15:28:44.590Z,19.70
2022-12-11T15:29:46.902Z,19.70
2022-12-11T15:30:58.011Z,19.70
2022-12-11T15:32:22.231Z,19.70
2022-12-11T15:33:29.641Z,19.80
2022-12-11T15:34:42.399Z,19.80
2022-12-11T15:36:01.612Z,19.80
2022-12-11T15:37:04.155Z,19.80
2022-12-11T15:38:25.369Z,19.80
2022-12-11T15:39:27.670Z,19.80
2022-12-11T15:40:30.369Z,19.80
2022-12-11T15:41:34.635Z,19.90
2022-12-11T15:42:39.770Z,19.90
2022-12-11T15:43:42.693Z,19.90
2022-12-11T15:44:45.033Z,19.90
2022-12-11T15:45:47.443Z,19.90
2022-12-11T15:46:50.129Z,19.90
2022-12-11T15:47:53.301Z,19.90
2022-12-11T15:48:56.814Z,19.90
2022-12-11T15:50:12.515Z,19.90
2022-12-11T15:51:15.920Z,20.00
2022-12-11T15:52:19.243Z,20.00
2022-12-11T15:53:21.570Z,19.80
2022-12-11T15:54:23.970Z,19.60
2022-12-11T15:55:29.640Z,18.60
2022-12-11T15:56:31.946Z,17.70
2022-12-11T15:57:34.487Z,17.00
2022-12-11T15:58:36.808Z,17.10
2022-12-11T15:59:39.236Z,17.40
2022-12-11T16:00:41.688Z,17.70
2022-12-11T16:01:44.073Z,18.00
2022-12-11T16:02:47.085Z,18.30
2022-12-11T16:03:50.344Z,18.40
2022-12-11T16:04:52.620Z,18.60
2022-12-11T16:05:54.998Z,18.70
2022-12-11T16:06:57.346Z,18.90
2022-12-11T16:07:59.880Z,19.00
2022-12-11T16:09:03.983Z,19.10
2022-12-11T16:10:07.829Z,19.20
2022-12-11T16:11:13.245Z,19.30
2022-12-11T16:12:16.118Z,19.30
2022-12-11T16:13:18.818Z,19.40
2022-12-11T16:14:21.122Z,19.50
2022-12-11T16:15:24.335Z,19.50